Time;durP1;ratioP1;P1;durP2;ratioP2;P2;SDS_P1;SDS_P2;PMS_P1;PMS_P2;Temp;Humidity;BMP_temperature;BMP_pressure;BME280_temperature;BME280_humidity;BME280_pressure;Samples;Min_cycle;Max_cycle;Signal;HPM_P1;HPM_P2
2023/01/17 00:01:35;;;;;;;;;;;4.00;99.90;;;;;;5056407;28;19999;-61
2023/01/17 00:10:03;;;;;;;;;;;4.10;99.90;;;;;;5056029;28;20293;-61
2023/01/17 00:12:17;;;;;;;;;;;4.20;99.90;;;;;;5041102;28;19909;-62
2023/01/17 00:14:42;;;;;;;;;;;4.20;99.90;;;;;;5056137;28;20414;-62
2023/01/17 00:17:08;;;;;;;;;;;4.20;99.90;;;;;;5056105;28;19909;-61
2023/01/17 01:35:58;;;;;;;;;;;3.80;99.90;;;;;;5071133;28;19994;-60
2023/01/17 01:38:24;;;;;;;;;;;3.70;99.90;;;;;;5071075;28;20013;-61
2023/01/17 01:40:51;;;;;;;;;;;3.60;99.90;;;;;;5070913;28;19912;-61
2023/01/17 01:43:18;;;;;;;;;;;3.70;99.90;;;;;;5071150;28;19983;-61
2023/01/17 01:45:47;;;;;;;;;;;3.70;99.90;;;;;;5071106;28;19979;-61
2023/01/17 01:48:32;;;;;;;;;;;3.70;99.90;;;;;;5071035;28;19909;-63
2023/01/17 01:50:58;;;;;;;;;;;3.70;99.90;;;;;;5070776;28;19972;-61
2023/01/17 01:53:24;;;;;;;;;;;3.70;99.90;;;;;;5070929;28;19916;-61
2023/01/17 01:55:51;;;;;;;;;;;3.80;99.90;;;;;;5070508;28;19913;-61
2023/01/17 01:58:19;;;;;;;;;;;3.80;99.90;;;;;;5070565;28;19952;-61
2023/01/17 02:00:44;;;;;;;;;;;3.80;99.90;;;;;;5070566;28;20290;-62
2023/01/17 02:03:13;;;;;;;;;;;3.80;99.90;;;;;;5070450;28;19915;-62
2023/01/17 02:05:41;;;;;;;;;;;3.80;99.90;;;;;;5070680;28;19908;-61
2023/01/17 02:08:09;;;;;;;;;;;3.70;99.90;;;;;;5070630;28;19916;-62
2023/01/17 02:10:35;;;;;;;;;;;3.70;99.90;;;;;;5070325;28;19955;-61
2023/01/17 02:13:01;;;;;;;;;;;3.70;99.90;;;;;;5070526;28;19908;-62
2023/01/17 02:15:30;;;;;;;;;;;3.70;99.90;;;;;;5070431;28;19943;-61
2023/01/17 02:18:01;;;;;;;;;;;3.70;99.90;;;;;;5070461;28;20366;-62
2023/01/17 02:20:47;;;;;;;;;;;3.70;99.90;;;;;;5070207;28;19915;-61
2023/01/17 02:23:21;;;;;;;;;;;3.70;99.90;;;;;;5070071;28;19909;-61
2023/01/17 02:26:09;;;;;;;;;;;3.70;99.90;;;;;;5070285;28;19909;-62
2023/01/17 02:28:46;;;;;;;;;;;3.70;99.90;;;;;;5069907;28;19995;-61
2023/01/17 02:31:14;;;;;;;;;;;3.70;99.90;;;;;;5069869;28;19912;-61
2023/01/17 02:36:22;;;;;;;;;;;3.70;99.90;;;;;;5091389;27;19912;-64
2023/01/17 02:38:51;;;;;;;;;;;3.70;99.90;;;;;;5091465;28;20327;-63
2023/01/17 02:41:19;;;;;;;;;;;3.70;99.90;;;;;;5091430;28;20385;-62
2023/01/17 02:43:47;;;;;;;;;;;3.70;99.90;;;;;;5091079;28;19915;-63
2023/01/17 02:46:13;;;;;;;;;;;3.70;99.90;;;;;;5089801;28;19916;-63
2023/01/17 02:48:38;;;;;;;;;;;3.70;99.90;;;;;;5089791;28;19908;-63
2023/01/17 02:51:24;;;;;;;;;;;3.60;99.90;;;;;;5090942;28;19916;-63
2023/01/17 02:53:53;;;;;;;;;;;3.60;99.90;;;;;;5090924;28;19931;-62
2023/01/17 02:56:33;;;;;;;;;;;3.60;99.90;;;;;;5090843;28;19916;-63
2023/01/17 02:59:18;;;;;;;;;;;3.60;99.90;;;;;;5091089;28;19944;-63
2023/01/17 03:02:03;;;;;;;;;;;3.60;99.90;;;;;;5090864;28;19909;-63
2023/01/17 03:04:35;;;;;;;;;;;3.60;99.90;;;;;;5090739;28;19913;-63
2023/01/17 03:07:03;;;;;;;;;;;3.50;99.90;;;;;;5090631;28;19913;-63
2023/01/17 03:09:29;;;;;;;;;;;3.20;99.90;;;;;;5090640;28;19909;-63
2023/01/17 03:12:00;;;;;;;;;;;3.00;99.90;;;;;;5090461;28;19909;-63
2023/01/17 03:14:25;;;;;;;;;;;2.80;99.90;;;;;;5090726;28;19913;-63
2023/01/17 03:16:51;;;;;;;;;;;2.60;99.90;;;;;;5090445;28;19916;-63
2023/01/17 03:19:17;;;;;;;;;;;2.50;99.90;;;;;;5123315;28;19915;-63
2023/01/17 03:21:42;;;;;;;;;;;2.40;99.90;;;;;;5090394;28;19908;-63
2023/01/17 03:24:07;;;;;;;;;;;2.20;99.90;;;;;;5090312;28;19999;-62
2023/01/17 03:26:33;;;;;;;;;;;2.20;99.90;;;;;;5090539;28;19915;-63
2023/01/17 03:28:58;;;;;;;;;;;2.20;99.90;;;;;;5090463;28;19909;-63
2023/01/17 03:31:24;;;;;;;;;;;2.20;99.90;;;;;;5090223;28;19909;-63
2023/01/17 03:33:49;;;;;;;;;;;2.30;99.90;;;;;;5090413;28;19951;-63
2023/01/17 03:36:15;;;;;;;;;;;2.30;99.90;;;;;;5110075;28;20378;-63
2023/01/17 03:38:40;;;;;;;;;;;2.30;99.90;;;;;;5110397;28;20289;-63
2023/01/17 03:41:06;;;;;;;;;;;2.20;99.90;;;;;;5110336;28;20289;-63
2023/01/17 03:43:31;;;;;;;;;;;2.20;99.90;;;;;;5110312;28;19912;-61
2023/01/17 03:46:01;;;;;;;;;;;2.20;99.90;;;;;;5106373;28;19908;-63
2023/01/17 03:48:26;;;;;;;;;;;2.20;99.90;;;;;;5096923;28;19908;-63
2023/01/17 03:50:51;;;;;;;;;;;2.20;99.90;;;;;;5096661;28;19993;-63
2023/01/17 03:53:17;;;;;;;;;;;2.20;99.90;;;;;;5096555;28;20259;-63
2023/01/17 03:55:44;;;;;;;;;;;2.20;99.90;;;;;;5096399;28;19912;-63
2023/01/17 03:58:09;;;;;;;;;;;2.20;99.90;;;;;;5096428;28;19965;-64
2023/01/17 04:00:35;;;;;;;;;;;2.20;99.90;;;;;;5096384;28;19915;-63
2023/01/17 04:03:01;;;;;;;;;;;2.10;99.90;;;;;;5096615;28;19908;-63
2023/01/17 04:05:26;;;;;;;;;;;2.00;99.90;;;;;;5096394;28;19908;-64
2023/01/17 04:07:52;;;;;;;;;;;2.00;99.90;;;;;;5096265;28;20285;-63
2023/01/17 04:10:17;;;;;;;;;;;2.00;99.90;;;;;;5096194;28;19915;-63
2023/01/17 04:12:43;;;;;;;;;;;2.00;99.90;;;;;;5096428;28;20370;-63
2023/01/17 04:15:08;;;;;;;;;;;2.00;99.90;;;;;;5096103;28;20014;-63
2023/01/17 04:17:34;;;;;;;;;;;2.00;99.90;;;;;;5096336;28;19955;-63
2023/01/17 04:19:59;;;;;;;;;;;2.00;99.90;;;;;;5096305;28;19969;-64
2023/01/17 04:22:25;;;;;;;;;;;1.90;99.90;;;;;;5095977;28;19908;-63
2023/01/17 04:24:50;;;;;;;;;;;1.90;99.90;;;;;;5096225;28;19912;-60
2023/01/17 04:27:16;;;;;;;;;;;1.80;99.90;;;;;;5096220;28;19908;-61
2023/01/17 04:29:41;;;;;;;;;;;1.70;99.90;;;;;;5096117;28;20292;-60
2023/01/17 04:32:07;;;;;;;;;;;1.70;99.90;;;;;;5095822;28;19912;-63
2023/01/17 04:34:32;;;;;;;;;;;1.60;99.90;;;;;;5095505;28;20415;-63
2023/01/17 04:36:57;;;;;;;;;;;1.60;99.90;;;;;;5077708;28;19947;-64
2023/01/17 04:39:23;;;;;;;;;;;1.50;99.90;;;;;;5095675;28;19908;-63
2023/01/17 04:41:48;;;;;;;;;;;1.50;99.90;;;;;;5077475;28;19908;-63
2023/01/17 04:44:14;;;;;;;;;;;1.50;99.90;;;;;;5095562;28;20392;-63
2023/01/17 04:46:39;;;;;;;;;;;1.50;99.90;;;;;;5095514;28;20658;-63
2023/01/17 04:49:05;;;;;;;;;;;1.60;99.90;;;;;;5095431;28;19935;-63
2023/01/17 04:51:30;;;;;;;;;;;1.60;99.90;;;;;;5095384;28;19912;-63
2023/01/17 04:53:56;;;;;;;;;;;1.60;99.90;;;;;;5095633;28;19961;-63
2023/01/17 04:56:21;;;;;;;;;;;1.70;99.90;;;;;;5095502;28;19912;-63
2023/01/17 04:58:46;;;;;;;;;;;1.70;99.90;;;;;;5094550;28;19914;-64
2023/01/17 05:01:12;;;;;;;;;;;1.70;99.90;;;;;;5095225;28;20427;-63
2023/01/17 05:03:37;;;;;;;;;;;1.70;99.90;;;;;;5095218;28;19908;-64
2023/01/17 05:06:03;;;;;;;;;;;1.80;99.90;;;;;;5095388;28;19908;-63
2023/01/17 05:08:28;;;;;;;;;;;1.80;99.90;;;;;;5095379;28;20389;-63
2023/01/17 05:10:54;;;;;;;;;;;1.80;99.90;;;;;;5095357;28;19908;-63
2023/01/17 05:13:19;;;;;;;;;;;1.80;99.90;;;;;;5095017;28;19908;-63
2023/01/17 05:15:45;;;;;;;;;;;1.80;99.90;;;;;;5094887;28;19912;-63
2023/01/17 05:18:12;;;;;;;;;;;1.80;99.90;;;;;;5095196;28;20385;-63
2023/01/17 05:20:37;;;;;;;;;;;1.80;99.90;;;;;;5095112;28;20003;-63
2023/01/17 05:23:02;;;;;;;;;;;1.80;99.90;;;;;;5094777;28;19947;-63
2023/01/17 05:25:29;;;;;;;;;;;1.90;99.90;;;;;;5095037;28;19908;-63
2023/01/17 05:27:54;;;;;;;;;;;1.90;99.90;;;;;;5094969;28;19908;-63
2023/01/17 05:30:20;;;;;;;;;;;1.90;99.90;;;;;;5094674;28;19919;-63
2023/01/17 05:32:48;;;;;;;;;;;1.90;99.90;;;;;;5094904;28;19908;-63
2023/01/17 05:35:14;;;;;;;;;;;2.00;99.90;;;;;;5094283;28;20048;-63
2023/01/17 05:37:39;;;;;;;;;;;2.00;99.90;;;;;;5094804;28;19908;-63
2023/01/17 05:40:08;;;;;;;;;;;1.90;99.90;;;;;;5076361;28;20000;-64
2023/01/17 05:42:33;;;;;;;;;;;1.90;99.90;;;;;;5094379;28;19961;-63
2023/01/17 05:44:59;;;;;;;;;;;1.90;99.90;;;;;;5094379;28;19908;-64
2023/01/17 05:47:24;;;;;;;;;;;2.00;99.90;;;;;;5094643;28;19915;-63
2023/01/17 05:49:50;;;;;;;;;;;2.00;99.90;;;;;;5094318;28;19912;-63
2023/01/17 05:52:15;;;;;;;;;;;2.00;99.90;;;;;;5094265;28;20337;-63
2023/01/17 05:54:41;;;;;;;;;;;2.00;99.90;;;;;;5076063;28;19935;-63
2023/01/17 05:57:06;;;;;;;;;;;2.00;99.90;;;;;;5094193;28;19931;-63
2023/01/17 05:59:31;;;;;;;;;;;2.10;99.90;;;;;;5094431;28;19998;-63
2023/01/17 06:01:57;;;;;;;;;;;2.10;99.90;;;;;;5094375;28;19908;-63
2023/01/17 06:04:22;;;;;;;;;;;2.10;99.90;;;;;;5094063;28;20395;-63
2023/01/17 06:06:48;;;;;;;;;;;2.10;99.90;;;;;;5094049;28;20328;-63
2023/01/17 06:09:13;;;;;;;;;;;2.10;99.90;;;;;;5093772;28;19915;-63
2023/01/17 06:11:39;;;;;;;;;;;2.10;99.90;;;;;;5093966;28;19908;-63
2023/01/17 06:14:04;;;;;;;;;;;2.10;99.90;;;;;;5093912;28;19912;-63
2023/01/17 06:16:29;;;;;;;;;;;2.10;99.90;;;;;;5075936;28;19963;-63
2023/01/17 06:18:55;;;;;;;;;;;2.20;99.90;;;;;;5093874;28;20281;-64
2023/01/17 06:21:20;;;;;;;;;;;2.20;99.90;;;;;;5094139;28;20001;-63
2023/01/17 06:23:46;;;;;;;;;;;2.20;99.90;;;;;;5093873;28;19909;-63
2023/01/17 06:26:11;;;;;;;;;;;2.20;99.90;;;;;;5093774;28;20380;-63
2023/01/17 06:28:37;;;;;;;;;;;2.20;99.90;;;;;;5093740;28;19908;-63
2023/01/17 06:31:04;;;;;;;;;;;2.20;99.90;;;;;;5093692;28;20044;-63
2023/01/17 06:33:29;;;;;;;;;;;2.20;99.90;;;;;;5093619;28;19919;-63
2023/01/17 06:35:55;;;;;;;;;;;2.20;99.90;;;;;;5093488;28;19920;-63
2023/01/17 06:38:20;;;;;;;;;;;2.20;99.90;;;;;;5093726;28;19955;-63
2023/01/17 06:40:46;;;;;;;;;;;2.30;99.90;;;;;;5093655;28;19908;-63
2023/01/17 06:43:11;;;;;;;;;;;2.30;99.90;;;;;;5093911;28;19908;-63
2023/01/17 06:45:37;;;;;;;;;;;2.30;99.90;;;;;;5093629;28;19914;-63
2023/01/17 06:48:03;;;;;;;;;;;2.30;99.90;;;;;;5075562;28;19908;-63
2023/01/17 06:50:29;;;;;;;;;;;2.20;99.90;;;;;;5075568;28;19916;-64
2023/01/17 06:52:56;;;;;;;;;;;2.30;99.90;;;;;;5093496;28;19908;-63
2023/01/17 06:55:22;;;;;;;;;;;2.20;99.90;;;;;;5093691;28;20365;-63
2023/01/17 06:57:49;;;;;;;;;;;2.20;99.90;;;;;;5093520;28;19958;-63
2023/01/17 07:00:15;;;;;;;;;;;2.20;99.90;;;;;;5093716;28;19977;-63
2023/01/17 07:02:40;;;;;;;;;;;2.10;99.90;;;;;;5093385;28;20373;-63
2023/01/17 07:05:07;;;;;;;;;;;2.10;99.90;;;;;;5093367;28;19947;-63
2023/01/17 07:07:33;;;;;;;;;;;2.10;99.90;;;;;;5093621;28;19990;-63
2023/01/17 07:09:59;;;;;;;;;;;2.10;99.90;;;;;;5093367;28;20012;-63
2023/01/17 07:12:24;;;;;;;;;;;2.10;99.90;;;;;;5093579;28;20048;-60
2023/01/17 07:14:50;;;;;;;;;;;2.10;99.90;;;;;;5093547;28;19933;-60
2023/01/17 07:17:15;;;;;;;;;;;2.10;99.90;;;;;;5093605;28;20285;-63
2023/01/17 07:19:41;;;;;;;;;;;2.20;99.90;;;;;;5093257;28;19916;-63
2023/01/17 07:22:08;;;;;;;;;;;2.10;99.90;;;;;;5077459;28;19959;-63
2023/01/17 07:24:36;;;;;;;;;;;2.10;99.90;;;;;;5097089;28;19958;-63
2023/01/17 07:27:01;;;;;;;;;;;2.20;99.90;;;;;;5097204;28;19912;-65
2023/01/17 07:29:27;;;;;;;;;;;2.10;99.90;;;;;;5061466;28;19916;-63
2023/01/17 07:31:52;;;;;;;;;;;2.20;99.90;;;;;;5096398;28;20356;-63
2023/01/17 07:34:18;;;;;;;;;;;2.20;99.90;;;;;;5095847;28;19916;-63
2023/01/17 07:36:43;;;;;;;;;;;2.10;99.90;;;;;;5096771;28;19968;-63
2023/01/17 07:39:09;;;;;;;;;;;2.10;99.90;;;;;;5096708;28;19974;-63
2023/01/17 07:41:39;;;;;;;;;;;2.10;99.90;;;;;;5078680;28;19908;-63
2023/01/17 07:44:06;;;;;;;;;;;2.10;99.90;;;;;;5096742;28;19909;-63
2023/01/17 07:46:32;;;;;;;;;;;2.10;99.90;;;;;;5096880;28;19915;-63
2023/01/17 07:48:57;;;;;;;;;;;2.10;99.90;;;;;;5096540;28;20405;-63
2023/01/17 07:51:22;;;;;;;;;;;2.00;99.90;;;;;;5096544;28;19908;-63
2023/01/17 07:53:48;;;;;;;;;;;2.00;99.90;;;;;;5096740;28;19959;-63
2023/01/17 07:56:13;;;;;;;;;;;2.00;99.90;;;;;;5096399;28;19916;-63
2023/01/17 07:58:39;;;;;;;;;;;2.00;99.90;;;;;;5096403;28;19909;-62
2023/01/17 08:01:06;;;;;;;;;;;2.10;99.90;;;;;;5096324;28;20437;-63
2023/01/17 08:03:34;;;;;;;;;;;2.00;99.90;;;;;;5096321;28;19908;-63
2023/01/17 08:06:00;;;;;;;;;;;2.10;99.90;;;;;;5096503;28;19908;-62
2023/01/17 08:08:26;;;;;;;;;;;2.10;99.90;;;;;;5096484;28;20411;-63
2023/01/17 08:10:52;;;;;;;;;;;2.10;99.90;;;;;;5096226;28;20336;-63
2023/01/17 08:13:17;;;;;;;;;;;2.10;99.90;;;;;;5096414;28;19955;-62
2023/01/17 08:15:43;;;;;;;;;;;2.10;99.90;;;;;;5095996;28;20007;-62
2023/01/17 08:18:08;;;;;;;;;;;2.10;99.90;;;;;;5096356;28;19930;-63
2023/01/17 08:20:34;;;;;;;;;;;2.20;99.90;;;;;;5095996;28;20389;-63
2023/01/17 08:22:59;;;;;;;;;;;2.20;99.90;;;;;;5077968;28;19965;-63
2023/01/17 08:25:25;;;;;;;;;;;2.20;99.90;;;;;;5095829;28;19958;-63
2023/01/17 08:27:55;;;;;;;;;;;2.30;99.90;;;;;;5077790;28;19912;-63
2023/01/17 08:30:21;;;;;;;;;;;2.30;99.90;;;;;;5096061;28;19932;-63
2023/01/17 08:32:46;;;;;;;;;;;2.30;99.90;;;;;;5095847;28;19908;-62
2023/01/17 08:35:12;;;;;;;;;;;2.30;99.90;;;;;;5095507;28;19969;-62
2023/01/17 08:37:37;;;;;;;;;;;2.20;99.90;;;;;;5095919;28;19955;-62
2023/01/17 08:40:04;;;;;;;;;;;2.20;99.90;;;;;;5095611;28;20276;-63
2023/01/17 08:42:36;;;;;;;;;;;2.10;99.90;;;;;;5095539;28;20335;-62
2023/01/17 08:45:02;;;;;;;;;;;2.20;99.90;;;;;;5095787;28;19939;-64
2023/01/17 08:47:27;;;;;;;;;;;2.20;99.90;;;;;;5077469;28;19909;-63
2023/01/17 08:49:53;;;;;;;;;;;2.30;99.90;;;;;;5095364;28;19908;-63
2023/01/17 08:52:18;;;;;;;;;;;2.30;99.90;;;;;;5095611;28;19908;-63
2023/01/17 08:54:44;;;;;;;;;;;2.30;99.90;;;;;;5095052;28;20018;-62
2023/01/17 08:57:09;;;;;;;;;;;2.30;99.90;;;;;;5095229;28;20258;-64
2023/01/17 08:59:37;;;;;;;;;;;2.30;99.90;;;;;;5095234;28;19909;-63
2023/01/17 09:02:13;;;;;;;;;;;2.40;99.90;;;;;;5076939;28;20362;-63
2023/01/17 09:04:39;;;;;;;;;;;2.40;99.90;;;;;;5095314;28;20266;-62
2023/01/17 09:07:06;;;;;;;;;;;2.50;99.90;;;;;;5095312;28;19908;-62
2023/01/17 09:09:31;;;;;;;;;;;2.50;99.90;;;;;;5095316;28;20250;-63
2023/01/17 09:11:57;;;;;;;;;;;2.60;99.90;;;;;;5095269;28;19914;-63
2023/01/17 09:14:23;;;;;;;;;;;2.60;99.90;;;;;;5095100;28;19948;-63
2023/01/17 09:16:48;;;;;;;;;;;2.70;99.90;;;;;;5095094;28;20005;-63
2023/01/17 09:19:14;;;;;;;;;;;2.70;99.90;;;;;;5094807;28;19909;-63
2023/01/17 09:21:39;;;;;;;;;;;3.10;99.90;;;;;;5095051;28;20367;-62
2023/01/17 09:24:05;;;;;;;;;;;4.00;99.90;;;;;;5094714;28;19912;-60
2023/01/17 09:26:30;;;;;;;;;;;4.70;99.90;;;;;;5094983;28;19912;-60
2023/01/17 09:28:57;;;;;;;;;;;5.00;99.90;;;;;;5094671;28;19908;-60
2023/01/17 09:31:23;;;;;;;;;;;4.70;99.90;;;;;;5094574;28;19999;-60
2023/01/17 09:33:49;;;;;;;;;;;4.30;99.90;;;;;;5094817;28;19955;-60
2023/01/17 09:36:15;;;;;;;;;;;4.10;99.90;;;;;;5094245;28;19927;-63
2023/01/17 09:38:41;;;;;;;;;;;3.90;99.90;;;;;;5094363;28;19912;-60
2023/01/17 09:41:26;;;;;;;;;;;3.90;99.90;;;;;;5094653;28;19946;-60
2023/01/17 09:43:54;;;;;;;;;;;3.90;99.90;;;;;;5093869;28;20425;-60
2023/01/17 09:46:22;;;;;;;;;;;3.90;99.90;;;;;;5094316;28;19915;-60
2023/01/17 09:48:50;;;;;;;;;;;3.90;99.90;;;;;;5094609;28;19912;-60
2023/01/17 09:51:20;;;;;;;;;;;3.80;99.90;;;;;;5094528;28;20284;-60
2023/01/17 09:53:45;;;;;;;;;;;3.70;99.90;;;;;;5076078;28;19908;-60
2023/01/17 09:56:14;;;;;;;;;;;3.60;99.90;;;;;;5094109;28;19961;-60
2023/01/17 09:59:00;;;;;;;;;;;3.50;99.90;;;;;;5094164;28;19915;-60
2023/01/17 10:01:32;;;;;;;;;;;3.40;99.90;;;;;;5094096;28;20274;-60
2023/01/17 10:04:10;;;;;;;;;;;3.40;99.90;;;;;;5094050;28;19959;-60
2023/01/17 10:06:39;;;;;;;;;;;3.40;99.90;;;;;;5094251;28;19908;-60
2023/01/17 10:12:00;;;;;;;;;;;3.30;99.90;;;;;;5091152;27;19918;-61
2023/01/17 10:14:35;;;;;;;;;;;3.30;99.90;;;;;;5091428;28;19999;-62
2023/01/17 10:17:08;;;;;;;;;;;3.30;99.90;;;;;;5091456;28;20369;-61
2023/01/17 10:22:33;;;;;;;;;;;3.50;99.90;;;;;;5091156;27;19913;-61
2023/01/17 10:25:06;;;;;;;;;;;3.80;99.90;;;;;;5091165;28;20024;-61
2023/01/17 10:27:33;;;;;;;;;;;4.00;99.90;;;;;;5089793;28;19908;-61
2023/01/17 10:30:02;;;;;;;;;;;3.90;99.90;;;;;;5091271;28;19908;-61
2023/01/17 10:32:29;;;;;;;;;;;3.90;99.90;;;;;;5091238;28;19943;-61
2023/01/17 10:34:57;;;;;;;;;;;4.40;99.90;;;;;;5090930;28;19908;-61
2023/01/17 10:37:31;;;;;;;;;;;4.40;99.90;;;;;;5090861;28;19909;-61
2023/01/17 10:40:01;;;;;;;;;;;4.50;99.90;;;;;;5090757;28;19944;-61
2023/01/17 10:42:30;;;;;;;;;;;4.20;99.90;;;;;;5090740;28;19908;-61
2023/01/17 10:45:04;;;;;;;;;;;4.10;99.90;;;;;;5090695;28;19908;-61
2023/01/17 10:47:33;;;;;;;;;;;4.70;99.90;;;;;;5090688;28;19909;-61
2023/01/17 10:50:02;;;;;;;;;;;5.00;99.90;;;;;;5090698;28;19908;-61
2023/01/17 10:52:36;;;;;;;;;;;4.70;99.90;;;;;;5090553;28;19917;-62
2023/01/17 10:55:22;;;;;;;;;;;4.50;99.90;;;;;;5090558;28;19908;-61
2023/01/17 10:57:48;;;;;;;;;;;4.20;99.90;;;;;;5090443;28;20297;-62
2023/01/17 11:00:21;;;;;;;;;;;4.00;99.90;;;;;;5090655;28;19916;-62
2023/01/17 11:02:49;;;;;;;;;;;4.70;99.90;;;;;;5090419;28;19909;-62
2023/01/17 11:05:29;;;;;;;;;;;5.50;99.90;;;;;;5090552;28;19913;-62
2023/01/17 11:08:00;;;;;;;;;;;6.00;99.90;;;;;;5090172;28;19912;-61
2023/01/17 11:10:46;;;;;;;;;;;6.20;99.90;;;;;;5090197;28;20278;-62
2023/01/17 11:13:33;;;;;;;;;;;6.50;99.90;;;;;;5090111;28;19958;-62
2023/01/17 11:16:01;;;;;;;;;;;6.50;99.90;;;;;;5089894;28;19909;-61
2023/01/17 11:18:28;;;;;;;;;;;5.80;99.90;;;;;;5090027;28;20003;-62
2023/01/17 11:21:05;;;;;;;;;;;4.90;99.90;;;;;;5122332;28;19920;-64
2023/01/17 11:23:32;;;;;;;;;;;4.80;99.90;;;;;;5089934;28;19968;-61
2023/01/17 11:26:01;;;;;;;;;;;4.90;99.90;;;;;;5089899;28;19915;-61
2023/01/17 11:28:29;;;;;;;;;;;4.80;99.90;;;;;;5090068;28;19908;-61
2023/01/17 11:30:57;;;;;;;;;;;4.60;99.90;;;;;;5090023;28;19918;-61
2023/01/17 11:33:54;;;;;;;;;;;4.30;99.90;;;;;;5076122;28;19999;-61
2023/01/17 11:36:26;;;;;;;;;;;4.20;99.90;;;;;;5076140;28;19986;-63
2023/01/17 11:39:11;;;;;;;;;;;4.20;99.90;;;;;;5076176;28;19936;-63
2023/01/17 11:41:38;;;;;;;;;;;4.10;99.90;;;;;;5075702;28;19913;-62
2023/01/17 11:44:23;;;;;;;;;;;4.10;99.90;;;;;;5075938;28;19947;-62
2023/01/17 11:47:07;;;;;;;;;;;4.10;99.90;;;;;;5076127;28;19908;-61
2023/01/17 11:49:32;;;;;;;;;;;4.20;99.90;;;;;;5076220;28;19954;-62
2023/01/17 11:51:58;;;;;;;;;;;4.30;99.90;;;;;;5076205;28;20405;-62
2023/01/17 11:54:27;;;;;;;;;;;4.20;99.90;;;;;;5075935;28;19919;-61
2023/01/17 11:57:00;;;;;;;;;;;4.20;99.90;;;;;;5076088;28;19932;-62
2023/01/17 11:59:46;;;;;;;;;;;4.10;99.90;;;;;;5076013;28;19996;-62
2023/01/17 12:05:24;;;;;;;;;;;4.20;99.90;;;;;;5070897;28;20366;-63
2023/01/17 12:07:59;;;;;;;;;;;4.20;99.90;;;;;;5067762;28;20392;-62
2023/01/17 12:10:36;;;;;;;;;;;4.00;99.90;;;;;;5055867;28;19920;-62
2023/01/17 12:16:34;;;;;;;;;;;3.80;99.90;;;;;;5069982;28;19916;-62
2023/01/17 12:18:53;;;;;;;;;;;3.90;99.90;;;;;;5070390;28;20289;-62
2023/01/17 12:24:24;;;;;;;;;;;3.90;99.90;;;;;;5069783;28;19917;-64
2023/01/17 12:27:05;;;;;;;;;;;3.90;99.90;;;;;;5069005;28;19913;-62
2023/01/17 12:29:40;;;;;;;;;;;4.00;99.90;;;;;;5069681;28;19951;-62
2023/01/17 12:32:24;;;;;;;;;;;4.00;99.90;;;;;;5069520;28;20386;-63
2023/01/17 12:34:53;;;;;;;;;;;4.10;99.90;;;;;;5069306;28;19915;-62
2023/01/17 12:37:22;;;;;;;;;;;4.30;99.90;;;;;;5069470;28;19940;-63
2023/01/17 12:39:55;;;;;;;;;;;4.30;99.90;;;;;;5070084;28;20359;-62
2023/01/17 12:42:23;;;;;;;;;;;4.20;99.90;;;;;;5068143;28;19917;-62
2023/01/17 12:44:53;;;;;;;;;;;4.00;99.90;;;;;;5069124;28;20000;-62
2023/01/17 12:47:20;;;;;;;;;;;4.10;99.90;;;;;;5069275;28;20420;-62
2023/01/17 12:52:45;;;;;;;;;;;4.30;99.90;;;;;;5090665;27;20327;-62
2023/01/17 12:55:14;;;;;;;;;;;4.30;99.90;;;;;;5092203;28;19959;-62
2023/01/17 12:57:44;;;;;;;;;;;4.50;99.90;;;;;;5090669;28;20359;-64
2023/01/17 13:00:11;;;;;;;;;;;4.60;99.90;;;;;;5091071;28;20281;-62
2023/01/17 13:02:57;;;;;;;;;;;4.60;99.90;;;;;;5091797;28;19912;-63
2023/01/17 13:05:24;;;;;;;;;;;4.70;99.90;;;;;;5090780;28;19908;-62
2023/01/17 13:08:10;;;;;;;;;;;4.50;99.90;;;;;;5090979;28;19909;-62
2023/01/17 13:10:46;;;;;;;;;;;4.40;99.90;;;;;;5091729;28;20019;-62
2023/01/17 13:13:18;;;;;;;;;;;4.40;99.90;;;;;;5081666;28;19956;-62
2023/01/17 13:15:46;;;;;;;;;;;4.50;99.90;;;;;;5070016;28;19909;-63
2023/01/17 13:18:14;;;;;;;;;;;4.40;99.90;;;;;;5070049;28;19916;-62
2023/01/17 13:21:03;;;;;;;;;;;4.40;99.90;;;;;;5089896;28;19909;-62
2023/01/17 13:23:36;;;;;;;;;;;4.30;99.90;;;;;;5079971;28;20389;-62
2023/01/17 13:26:02;;;;;;;;;;;4.40;99.90;;;;;;5084946;28;19966;-62
2023/01/17 13:28:38;;;;;;;;;;;4.30;99.90;;;;;;5068534;28;19909;-63
2023/01/17 13:31:12;;;;;;;;;;;4.40;99.90;;;;;;5069997;28;20385;-61
2023/01/17 13:33:50;;;;;;;;;;;4.40;99.90;;;;;;5070343;28;20057;-62
2023/01/17 13:39:18;;;;;;;;;;;5.00;99.90;;;;;;5091247;27;19912;-62
2023/01/17 13:41:53;;;;;;;;;;;5.20;99.90;;;;;;5091073;28;19912;-62
2023/01/17 13:44:20;;;;;;;;;;;5.20;99.90;;;;;;5091206;28;19916;-62
2023/01/17 13:47:06;;;;;;;;;;;5.20;99.90;;;;;;5091194;28;20431;-62
2023/01/17 13:49:41;;;;;;;;;;;5.20;99.90;;;;;;5090888;28;19909;-62
2023/01/17 13:52:26;;;;;;;;;;;5.00;99.90;;;;;;5090741;28;19908;-62
2023/01/17 13:54:53;;;;;;;;;;;5.00;99.90;;;;;;5090199;28;19908;-63
2023/01/17 13:57:24;;;;;;;;;;;5.00;99.90;;;;;;5087698;28;19923;-63
2023/01/17 13:59:51;;;;;;;;;;;4.90;99.90;;;;;;5080603;28;20015;-62
2023/01/17 14:05:14;;;;;;;;;;;4.70;99.90;;;;;;5090863;27;19919;-61
2023/01/17 14:07:43;;;;;;;;;;;4.60;99.90;;;;;;5073768;28;19913;-61
2023/01/17 14:10:28;;;;;;;;;;;4.60;99.90;;;;;;5075533;28;20374;-63
2023/01/17 14:12:54;;;;;;;;;;;4.50;99.90;;;;;;5077760;28;19913;-61
2023/01/17 14:15:21;;;;;;;;;;;4.50;99.90;;;;;;5070528;28;20271;-61
2023/01/17 14:17:51;;;;;;;;;;;4.70;99.90;;;;;;5072186;28;19967;-62
2023/01/17 14:20:20;;;;;;;;;;;4.70;99.90;;;;;;5076922;28;19913;-61
2023/01/17 14:22:47;;;;;;;;;;;4.70;99.90;;;;;;5079358;28;19962;-62
2023/01/17 14:25:16;;;;;;;;;;;4.80;99.90;;;;;;5080746;28;19913;-64
2023/01/17 14:27:44;;;;;;;;;;;4.80;99.90;;;;;;5070204;28;19913;-67
2023/01/17 14:30:19;;;;;;;;;;;4.80;99.90;;;;;;5092624;28;19913;-62
2023/01/17 14:33:03;;;;;;;;;;;4.80;99.90;;;;;;5089755;28;20365;-62
2023/01/17 14:35:34;;;;;;;;;;;4.70;99.90;;;;;;5108337;28;19919;-61
2023/01/17 14:38:01;;;;;;;;;;;4.70;99.90;;;;;;5090216;28;19947;-61
2023/01/17 14:40:29;;;;;;;;;;;4.60;99.90;;;;;;5090516;28;19916;-62
2023/01/17 14:43:03;;;;;;;;;;;4.50;99.90;;;;;;5090394;28;20376;-61
2023/01/17 14:45:30;;;;;;;;;;;4.40;99.90;;;;;;5090558;28;19909;-61
2023/01/17 14:47:58;;;;;;;;;;;4.40;99.90;;;;;;5075222;28;19948;-61
2023/01/17 14:50:25;;;;;;;;;;;4.30;99.90;;;;;;5068639;28;19920;-62
2023/01/17 14:53:07;;;;;;;;;;;4.30;99.90;;;;;;5070024;28;20342;-61
2023/01/17 14:55:33;;;;;;;;;;;4.20;99.90;;;;;;5095826;28;19916;-62
2023/01/17 14:57:58;;;;;;;;;;;4.10;99.90;;;;;;5088508;28;20630;-61
2023/01/17 15:00:27;;;;;;;;;;;4.00;99.90;;;;;;5091940;28;19954;-62
2023/01/17 15:02:52;;;;;;;;;;;4.10;99.90;;;;;;5091395;28;20500;-62
2023/01/17 15:05:19;;;;;;;;;;;4.10;99.90;;;;;;5109950;28;19916;-62
2023/01/17 15:07:47;;;;;;;;;;;4.00;99.90;;;;;;5110077;28;20636;-62
2023/01/17 15:10:16;;;;;;;;;;;4.00;99.90;;;;;;5109096;28;20397;-62
2023/01/17 15:12:45;;;;;;;;;;;3.90;99.90;;;;;;5107753;28;19918;-62
2023/01/17 15:18:08;;;;;;;;;;;3.80;99.90;;;;;;5071069;28;19913;-62
2023/01/17 15:20:35;;;;;;;;;;;3.80;99.90;;;;;;5055796;28;19913;-62
2023/01/17 15:23:01;;;;;;;;;;;3.70;99.90;;;;;;5050549;28;19913;-62
2023/01/17 15:25:27;;;;;;;;;;;3.70;99.90;;;;;;5067339;28;19974;-62
2023/01/17 15:27:52;;;;;;;;;;;3.60;99.90;;;;;;5068259;28;20011;-62
2023/01/17 15:30:18;;;;;;;;;;;3.50;99.90;;;;;;5070080;28;19909;-61
2023/01/17 15:32:48;;;;;;;;;;;3.50;99.90;;;;;;5055564;28;19913;-62
2023/01/17 15:35:15;;;;;;;;;;;3.40;99.90;;;;;;5062016;28;19913;-61
2023/01/17 15:37:41;;;;;;;;;;;3.30;99.90;;;;;;5066707;28;20427;-62
2023/01/17 15:40:15;;;;;;;;;;;3.20;99.90;;;;;;5070586;28;19912;-61
2023/01/17 15:42:41;;;;;;;;;;;3.10;99.90;;;;;;5069533;28;19919;-64
2023/01/17 15:45:14;;;;;;;;;;;2.90;99.90;;;;;;5068891;28;19912;-62
2023/01/17 15:47:39;;;;;;;;;;;2.80;99.90;;;;;;5069383;28;19913;-62
2023/01/17 15:50:25;;;;;;;;;;;2.60;99.90;;;;;;5067775;28;19917;-62
2023/01/17 15:52:52;;;;;;;;;;;2.40;99.90;;;;;;5070432;28;19909;-62
2023/01/17 15:55:21;;;;;;;;;;;2.30;99.90;;;;;;5064722;28;19919;-62
2023/01/17 15:57:46;;;;;;;;;;;2.10;99.90;;;;;;5067703;28;20409;-61
2023/01/17 16:00:17;;;;;;;;;;;2.00;99.90;;;;;;5069063;28;19917;-61
2023/01/17 16:02:43;;;;;;;;;;;1.80;99.90;;;;;;5065863;28;19920;-62
2023/01/17 16:05:29;;;;;;;;;;;1.80;99.90;;;;;;5067336;28;20358;-62
2023/01/17 16:07:56;;;;;;;;;;;1.70;99.90;;;;;;5067621;28;19959;-62
2023/01/17 16:10:23;;;;;;;;;;;1.60;99.90;;;;;;5069763;28;19909;-61
2023/01/17 16:12:50;;;;;;;;;;;1.50;99.90;;;;;;5067407;28;20066;-62
2023/01/17 16:15:16;;;;;;;;;;;1.40;99.90;;;;;;5063946;28;19913;-62
2023/01/17 16:17:46;;;;;;;;;;;1.30;99.90;;;;;;5069636;28;20427;-61
2023/01/17 16:20:31;;;;;;;;;;;1.20;99.90;;;;;;5089050;28;19916;-62
2023/01/17 16:22:57;;;;;;;;;;;1.10;99.90;;;;;;5080722;28;20167;-62
2023/01/17 16:25:22;;;;;;;;;;;1.00;99.90;;;;;;5084586;28;20394;-65
2023/01/17 16:27:48;;;;;;;;;;;1.00;99.90;;;;;;5065109;28;19909;-64
2023/01/17 16:30:15;;;;;;;;;;;0.90;99.90;;;;;;5069732;28;19958;-61
2023/01/17 16:32:41;;;;;;;;;;;0.80;99.90;;;;;;5070370;28;19959;-61